Olympia Regional Airport
KOLM : now visible

Airfield :











YOU CAN JOIN US ON...

 
LOGIN :

Register | Disclaimer

   EN    FR    IT 

 









Legend :    VFR   Marginal VFR   IFR   Intensive IFR   Very Intensive IFR
Visi :
Ceiling :
>= 8 km
>= 3000ft
5 to 8 km
1000 to 3000 ft
1500m to 5 km
500 to 1000 ft
800 to 1500m
200 to 500 ft
< 800m
< 200 ft
Symbols :   Thunderstorms  Fog  Heavy snow  Heavy precipitations  Wind > 20 kt






- Airport Elevation : 209 ft
- IATA code : OLM


KOLM - Olympia Regional

CURRENT METAR :
  • 131654Z 04006KT 4SM BR OVC007 15/14 A2989 RMK AO2 RAE29 CIG 005V010 SLP123 P0001 T01500144

EXPIRED METARs :
  • 131554Z 05004KT 2 1/2SM -RA BR BKN007 OVC019 15/14 A2989 RMK AO2 CIG 004V010 SLP120 P0006 T01500144
  • 131454Z AUTO 06004KT 2SM -RA BR BKN005 OVC009 14/14 A2989 RMK AO2 SLP120 P0022 60030 T01440144 51011
  • 131436Z AUTO 00000KT 1 1/4SM +RA BR OVC005 15/14 A2989 RMK AO2 P0013 T01500144
  • 131421Z AUTO 02003KT 1 1/4SM +RA BR OVC005 14/14 A2988 RMK AO2 CIG 003V008 P0006 T01440144

TAF KOLM
Valid from the 13 at 12:00 until the 14 at 12:00 UTC


131140Z 1312/1412 00000KT P6SM -RA SCT009 OVC030
TEMPO 1312/1315 BKN009 OVC030
FM131500 VRB04KT 5SM -RA BR SCT010 OVC020
FM131900 VRB04KT 2SM -RA BR OVC008
FM140500 VRB04KT P6SM -SHRA SCT008 BKN012 OVC022
KZSE FIR / North America



MET'MAP, your aeronautical weather chart ! - Copyright ORBIFLY December 2007 - Disclaimer

ORBIFLY MET'MAP TEAM :

Programming & Development : Alexandra Zaïnal
Concept & original design : Baudouin d'Aumeries
Assistance for programming : Marc-Olivier Méhu
Technical & hardware support : Manuel Goepfert

Contact : metmap@orbifly.com




SOURCES & CREDITS :

   NOAA       Earth
Advisory